Time;durP1;ratioP1;P1;durP2;ratioP2;P2;SDS_P1;SDS_P2;PMS_P1;PMS_P2;Temp;Humidity;BMP_temperature;BMP_pressure;BME280_temperature;BME280_humidity;BME280_pressure;Samples;Min_cycle;Max_cycle;Signal;HPM_P1;HPM_P2
2022/10/18 00:00:46;;;;;;;47.10;42.70;;;;;;;;;;5137698;27;20935;-82
2022/10/18 00:03:13;;;;;;;48.90;44.40;;;;;;;;;;5138382;27;20471;-81
2022/10/18 00:05:40;;;;;;;50.47;45.50;;;;;;;;;;5138269;27;20482;-80
2022/10/18 00:08:08;;;;;;;49.50;45.20;;;;;;;;;;5138787;27;20464;-81
2022/10/18 00:10:37;;;;;;;49.93;45.13;;;;;;;;;;5138753;27;20422;-81
2022/10/18 00:13:04;;;;;;;50.67;46.10;;;;;;;;;;5137539;27;20498;-81
2022/10/18 00:15:32;;;;;;;48.77;44.47;;;;;;;;;;5137821;27;20780;-82
2022/10/18 00:17:59;;;;;;;50.73;45.73;;;;;;;;;;5138278;27;20449;-82
2022/10/18 00:20:27;;;;;;;48.93;44.10;;;;;;;;;;5138543;27;20492;-81
2022/10/18 00:22:54;;;;;;;51.73;46.70;;;;;;;;;;5138056;27;20476;-81
2022/10/18 00:25:22;;;;;;;52.20;46.73;;;;;;;;;;5137069;27;20463;-81
2022/10/18 00:27:51;;;;;;;50.03;45.30;;;;;;;;;;5138336;27;20445;-82
2022/10/18 00:30:18;;;;;;;52.70;47.37;;;;;;;;;;5138068;27;20409;-81
2022/10/18 00:32:46;;;;;;;48.60;44.27;;;;;;;;;;5137335;27;20442;-80
2022/10/18 00:35:13;;;;;;;50.33;45.67;;;;;;;;;;5136753;27;20443;-80
2022/10/18 00:37:40;;;;;;;50.90;45.70;;;;;;;;;;5138072;27;20465;-82
2022/10/18 00:40:08;;;;;;;49.87;45.00;;;;;;;;;;5137794;27;20452;-82
2022/10/18 00:42:36;;;;;;;49.60;45.00;;;;;;;;;;5137285;27;20444;-80
2022/10/18 00:45:19;;;;;;;49.50;44.90;;;;;;;;;;5137321;27;20468;-82
2022/10/18 00:47:51;;;;;;;49.30;44.83;;;;;;;;;;5137669;27;20434;-81
2022/10/18 00:50:20;;;;;;;47.77;43.23;;;;;;;;;;5138256;27;20430;-81
2022/10/18 00:52:49;;;;;;;50.13;45.47;;;;;;;;;;5137641;27;20806;-82
2022/10/18 00:55:17;;;;;;;50.37;45.60;;;;;;;;;;5137423;27;20442;-81
2022/10/18 00:57:45;;;;;;;48.20;43.60;;;;;;;;;;5137500;27;20445;-81
2022/10/18 01:00:13;;;;;;;50.20;45.80;;;;;;;;;;5137127;27;20480;-81
2022/10/18 01:02:43;;;;;;;52.60;46.93;;;;;;;;;;5137291;27;20529;-81
2022/10/18 01:05:11;;;;;;;50.27;45.67;;;;;;;;;;5137327;27;20819;-81
2022/10/18 01:07:45;;;;;;;51.50;46.40;;;;;;;;;;5137194;27;20450;-82
2022/10/18 01:10:18;;;;;;;51.70;46.70;;;;;;;;;;5136858;27;20490;-82
2022/10/18 01:12:52;;;;;;;51.23;46.20;;;;;;;;;;5137112;27;20463;-82
2022/10/18 01:15:22;;;;;;;52.77;47.20;;;;;;;;;;5137748;27;20802;-81
2022/10/18 01:17:57;;;;;;;52.77;47.50;;;;;;;;;;5137344;28;20481;-81
2022/10/18 01:20:36;;;;;;;53.80;48.50;;;;;;;;;;5137578;28;20463;-81
2022/10/18 01:23:06;;;;;;;49.77;44.93;;;;;;;;;;5136361;27;20489;-82
2022/10/18 01:25:38;;;;;;;47.87;42.97;;;;;;;;;;5136963;28;20446;-81
2022/10/18 01:28:11;;;;;;;50.87;45.77;;;;;;;;;;5136919;27;20448;-80
2022/10/18 01:30:52;;;;;;;50.50;45.30;;;;;;;;;;5137304;28;20426;-81
2022/10/18 01:33:26;;;;;;;51.37;46.37;;;;;;;;;;5136926;27;20476;-81
2022/10/18 01:35:55;;;;;;;49.10;44.10;;;;;;;;;;5137417;28;20467;-81
2022/10/18 01:38:23;;;;;;;49.43;44.77;;;;;;;;;;5139582;27;20920;-81
2022/10/18 01:40:51;;;;;;;49.10;44.77;;;;;;;;;;5141254;27;21800;-82
2022/10/18 01:43:19;;;;;;;51.53;46.30;;;;;;;;;;5140871;27;20438;-81
2022/10/18 01:45:47;;;;;;;50.90;46.03;;;;;;;;;;5141308;27;20457;-81
2022/10/18 01:48:17;;;;;;;51.30;45.90;;;;;;;;;;5141707;27;20457;-82
2022/10/18 01:50:44;;;;;;;50.50;45.67;;;;;;;;;;5141560;27;20448;-81
2022/10/18 01:53:25;;;;;;;52.43;47.27;;;;;;;;;;5140305;27;20795;-82
2022/10/18 01:55:55;;;;;;;49.43;44.77;;;;;;;;;;5141769;27;20448;-81
2022/10/18 01:58:27;;;;;;;51.73;46.33;;;;;;;;;;5141160;27;20442;-80
2022/10/18 02:01:01;;;;;;;45.63;41.40;;;;;;;;;;5141231;27;20451;-82
2022/10/18 02:03:30;;;;;;;49.90;45.00;;;;;;;;;;5140132;27;20484;-82
2022/10/18 02:05:59;;;;;;;45.43;40.83;;;;;;;;;;5140721;27;20481;-81
2022/10/18 02:08:29;;;;;;;48.20;43.00;;;;;;;;;;5140596;27;20425;-81
2022/10/18 02:11:01;;;;;;;49.73;44.67;;;;;;;;;;5141101;27;20451;-82
2022/10/18 02:13:30;;;;;;;49.03;44.43;;;;;;;;;;5140640;27;20478;-81
2022/10/18 02:16:00;;;;;;;44.87;40.30;;;;;;;;;;5140743;27;20473;-82
2022/10/18 02:18:29;;;;;;;45.43;41.13;;;;;;;;;;5141111;27;20461;-81
2022/10/18 02:20:59;;;;;;;48.80;43.93;;;;;;;;;;5140102;27;20497;-82
2022/10/18 02:23:27;;;;;;;47.60;42.87;;;;;;;;;;5140571;27;20446;-81
2022/10/18 02:25:54;;;;;;;48.93;44.17;;;;;;;;;;5140028;27;20586;-82
2022/10/18 02:28:22;;;;;;;47.27;42.87;;;;;;;;;;5139686;27;20435;-80
2022/10/18 02:30:53;;;;;;;51.90;46.37;;;;;;;;;;5140882;27;20439;-81
2022/10/18 02:33:24;;;;;;;49.23;44.50;;;;;;;;;;5140272;27;20471;-81
2022/10/18 02:35:53;;;;;;;54.33;46.47;;;;;;;;;;5140677;27;20879;-81
2022/10/18 02:38:25;;;;;;;50.23;45.43;;;;;;;;;;5140744;27;20774;-81
2022/10/18 02:40:53;;;;;;;48.50;43.50;;;;;;;;;;5140301;27;20815;-82
2022/10/18 02:43:20;;;;;;;48.80;44.03;;;;;;;;;;5139297;27;20500;-83
2022/10/18 02:45:47;;;;;;;50.27;44.77;;;;;;;;;;5140560;27;20445;-82
2022/10/18 02:48:15;;;;;;;48.77;43.70;;;;;;;;;;5139079;27;20424;-81
2022/10/18 02:50:42;;;;;;;50.77;45.13;;;;;;;;;;5140144;27;20471;-81
2022/10/18 02:53:09;;;;;;;50.13;45.00;;;;;;;;;;5138427;27;20481;-82
2022/10/18 02:55:38;;;;;;;49.00;43.57;;;;;;;;;;5139883;27;20453;-81
2022/10/18 02:58:05;;;;;;;52.97;44.60;;;;;;;;;;5139005;27;20456;-81
2022/10/18 03:00:33;;;;;;;49.17;44.37;;;;;;;;;;5139327;27;20493;-81
2022/10/18 03:03:00;;;;;;;47.90;43.20;;;;;;;;;;5138688;27;20484;-81
2022/10/18 03:05:27;;;;;;;46.17;41.83;;;;;;;;;;5139212;27;20450;-82
2022/10/18 03:07:57;;;;;;;47.77;42.87;;;;;;;;;;5139556;27;20445;-81
2022/10/18 03:10:25;;;;;;;48.03;43.07;;;;;;;;;;5139971;27;20417;-81
2022/10/18 03:12:53;;;;;;;47.10;42.27;;;;;;;;;;5138456;27;20504;-81
2022/10/18 03:15:21;;;;;;;46.10;41.63;;;;;;;;;;5139811;27;20432;-80
2022/10/18 03:17:48;;;;;;;47.50;42.87;;;;;;;;;;5139610;27;20462;-81
2022/10/18 03:20:15;;;;;;;47.93;43.43;;;;;;;;;;5139683;27;20493;-81
2022/10/18 03:22:43;;;;;;;46.63;42.33;;;;;;;;;;5138165;27;20504;-82
2022/10/18 03:25:10;;;;;;;48.07;43.30;;;;;;;;;;5139550;27;20408;-81
2022/10/18 03:27:37;;;;;;;46.10;41.83;;;;;;;;;;5139436;27;20441;-80
2022/10/18 03:30:07;;;;;;;46.17;42.07;;;;;;;;;;5139824;27;20441;-81
2022/10/18 03:32:34;;;;;;;43.83;39.57;;;;;;;;;;5138755;27;20544;-80
2022/10/18 03:35:02;;;;;;;40.03;36.67;;;;;;;;;;5138759;27;20472;-80
2022/10/18 03:37:29;;;;;;;40.30;36.90;;;;;;;;;;5138965;27;20461;-82
2022/10/18 03:39:56;;;;;;;42.30;38.60;;;;;;;;;;5139118;27;20459;-81
2022/10/18 03:42:24;;;;;;;40.93;37.20;;;;;;;;;;5138435;27;20424;-81
2022/10/18 03:44:51;;;;;;;41.87;37.87;;;;;;;;;;5139365;27;20438;-81
2022/10/18 03:47:20;;;;;;;40.27;36.83;;;;;;;;;;5138391;27;20967;-81
2022/10/18 03:49:47;;;;;;;42.80;38.30;;;;;;;;;;5139301;27;20397;-80
2022/10/18 03:52:14;;;;;;;39.67;36.40;;;;;;;;;;5138073;27;20842;-80
2022/10/18 03:54:42;;;;;;;42.50;38.90;;;;;;;;;;5139272;27;20423;-81
2022/10/18 03:57:09;;;;;;;39.67;36.27;;;;;;;;;;5139411;27;20416;-80
2022/10/18 03:59:36;;;;;;;39.57;35.60;;;;;;;;;;5138131;27;20457;-80
2022/10/18 04:02:04;;;;;;;36.70;33.63;;;;;;;;;;5137741;27;20480;-81
2022/10/18 04:04:32;;;;;;;38.70;35.20;;;;;;;;;;5138076;27;20453;-81
2022/10/18 04:07:00;;;;;;;38.53;35.20;;;;;;;;;;5138719;27;20428;-81
2022/10/18 04:09:27;;;;;;;37.57;34.27;;;;;;;;;;5138642;27;20447;-81
2022/10/18 04:11:54;;;;;;;37.63;34.63;;;;;;;;;;5137948;27;20427;-81
2022/10/18 04:14:22;;;;;;;37.97;34.53;;;;;;;;;;5137361;27;20466;-81
2022/10/18 04:16:49;;;;;;;38.30;34.70;;;;;;;;;;5138626;27;20429;-81
2022/10/18 04:19:16;;;;;;;37.87;34.60;;;;;;;;;;5138368;27;20443;-82
2022/10/18 04:21:45;;;;;;;35.67;32.93;;;;;;;;;;5137708;27;20483;-80
2022/10/18 04:24:13;;;;;;;35.90;33.10;;;;;;;;;;5137921;27;20480;-82
2022/10/18 04:26:40;;;;;;;37.70;34.60;;;;;;;;;;5138161;27;20449;-81
2022/10/18 04:29:07;;;;;;;37.97;34.57;;;;;;;;;;5138090;27;20421;-80
2022/10/18 04:31:35;;;;;;;38.90;35.57;;;;;;;;;;5137566;27;20454;-80
2022/10/18 04:34:03;;;;;;;36.97;33.73;;;;;;;;;;5137823;27;20475;-80
2022/10/18 04:36:31;;;;;;;38.90;35.50;;;;;;;;;;5138339;27;20444;-80
2022/10/18 04:38:59;;;;;;;37.53;34.50;;;;;;;;;;5137716;27;20449;-81
2022/10/18 04:41:27;;;;;;;40.23;36.73;;;;;;;;;;5136720;27;20494;-80
2022/10/18 04:43:54;;;;;;;38.27;35.03;;;;;;;;;;5137406;27;20440;-81
2022/10/18 04:46:21;;;;;;;39.73;36.50;;;;;;;;;;5138308;27;20448;-80
2022/10/18 04:48:48;;;;;;;39.50;36.30;;;;;;;;;;5137894;27;20420;-81
2022/10/18 04:51:16;;;;;;;36.20;33.30;;;;;;;;;;5136940;27;20477;-81
2022/10/18 04:53:43;;;;;;;38.10;35.10;;;;;;;;;;5137584;27;20466;-81
2022/10/18 04:56:12;;;;;;;37.53;34.63;;;;;;;;;;5137936;27;20817;-80
2022/10/18 04:58:39;;;;;;;37.63;34.80;;;;;;;;;;5138058;27;20456;-81
2022/10/18 05:01:07;;;;;;;39.00;35.93;;;;;;;;;;5136500;27;20809;-82
2022/10/18 05:03:34;;;;;;;36.43;33.53;;;;;;;;;;5136539;27;20845;-80
2022/10/18 05:06:02;;;;;;;36.47;33.43;;;;;;;;;;5137790;27;20453;-80
2022/10/18 05:08:29;;;;;;;36.83;33.73;;;;;;;;;;5137379;27;20459;-81
2022/10/18 05:10:57;;;;;;;36.37;33.43;;;;;;;;;;5136837;27;20444;-81
2022/10/18 05:13:26;;;;;;;37.30;34.27;;;;;;;;;;5136892;27;20500;-80
2022/10/18 05:15:53;;;;;;;37.67;34.50;;;;;;;;;;5137691;27;20457;-81
2022/10/18 05:18:20;;;;;;;35.40;32.50;;;;;;;;;;5137721;28;20448;-81
2022/10/18 05:20:48;;;;;;;34.90;32.10;;;;;;;;;;5137635;28;20485;-81
2022/10/18 05:23:15;;;;;;;34.17;31.60;;;;;;;;;;5136141;28;20505;-82
2022/10/18 05:25:43;;;;;;;32.93;30.43;;;;;;;;;;5137185;27;20467;-81
2022/10/18 05:28:10;;;;;;;33.37;30.93;;;;;;;;;;5137372;28;20444;-81
2022/10/18 05:30:39;;;;;;;34.70;32.00;;;;;;;;;;5137562;27;20945;-80
2022/10/18 05:33:07;;;;;;;33.00;30.30;;;;;;;;;;5136444;28;20479;-80
2022/10/18 05:35:34;;;;;;;36.13;33.27;;;;;;;;;;5136598;27;20471;-81
2022/10/18 05:38:02;;;;;;;34.47;31.87;;;;;;;;;;5138245;28;20431;-81
2022/10/18 05:40:30;;;;;;;37.40;34.37;;;;;;;;;;5136997;27;20457;-80
2022/10/18 05:42:57;;;;;;;35.27;32.53;;;;;;;;;;5136434;28;20469;-81
2022/10/18 05:45:24;;;;;;;34.93;32.20;;;;;;;;;;5137168;28;20784;-81
2022/10/18 05:47:53;;;;;;;36.27;33.27;;;;;;;;;;5136824;27;20475;-81
2022/10/18 05:50:21;;;;;;;35.13;32.13;;;;;;;;;;5136808;27;20455;-80
2022/10/18 05:52:48;;;;;;;35.67;32.53;;;;;;;;;;5136274;28;20438;-80
2022/10/18 05:55:15;;;;;;;34.00;31.40;;;;;;;;;;5137434;27;20501;-81
2022/10/18 05:57:43;;;;;;;33.90;31.03;;;;;;;;;;5137116;27;20428;-81
2022/10/18 06:00:11;;;;;;;34.10;31.23;;;;;;;;;;5136523;27;20435;-82
2022/10/18 06:02:39;;;;;;;34.73;31.93;;;;;;;;;;5134053;28;20549;-83
2022/10/18 06:05:08;;;;;;;33.17;30.50;;;;;;;;;;5136658;27;20453;-84
2022/10/18 06:07:35;;;;;;;32.10;29.40;;;;;;;;;;5136408;28;20809;-83
2022/10/18 06:10:03;;;;;;;32.70;30.20;;;;;;;;;;5137923;28;20435;-83
2022/10/18 06:12:30;;;;;;;32.90;30.07;;;;;;;;;;5136844;27;20995;-81
2022/10/18 06:14:57;;;;;;;32.13;29.73;;;;;;;;;;5138291;28;20432;-81
2022/10/18 06:17:25;;;;;;;33.50;30.60;;;;;;;;;;5137965;28;20413;-81
2022/10/18 06:19:52;;;;;;;32.10;29.60;;;;;;;;;;5138174;27;20434;-81
2022/10/18 06:22:21;;;;;;;32.50;30.00;;;;;;;;;;5136389;27;20519;-87
2022/10/18 06:24:48;;;;;;;32.37;30.00;;;;;;;;;;5139751;27;20452;-85
2022/10/18 06:27:15;;;;;;;30.83;28.53;;;;;;;;;;5143828;27;20441;-86
2022/10/18 06:29:43;;;;;;;33.50;30.70;;;;;;;;;;5139961;27;20452;-86
2022/10/18 06:32:10;;;;;;;31.50;29.20;;;;;;;;;;5138687;27;20427;-87
2022/10/18 06:34:38;;;;;;;33.00;30.23;;;;;;;;;;5137843;27;20992;-87
2022/10/18 06:37:05;;;;;;;32.60;29.80;;;;;;;;;;5140707;27;20454;-85
2022/10/18 06:39:34;;;;;;;33.60;31.00;;;;;;;;;;5145695;27;20420;-84
2022/10/18 06:42:01;;;;;;;33.57;30.97;;;;;;;;;;5144641;27;20462;-79
2022/10/18 06:44:28;;;;;;;31.83;29.33;;;;;;;;;;5139094;27;20495;-82
2022/10/18 06:46:56;;;;;;;31.63;29.33;;;;;;;;;;5141545;27;20456;-85
2022/10/18 06:49:23;;;;;;;31.70;29.00;;;;;;;;;;5142509;27;20462;-85
2022/10/18 06:51:50;;;;;;;31.63;29.13;;;;;;;;;;5142385;27;20425;-85
2022/10/18 06:54:18;;;;;;;32.40;29.70;;;;;;;;;;5141297;27;20496;-84
2022/10/18 06:56:47;;;;;;;31.73;28.90;;;;;;;;;;5142464;27;20426;-81
2022/10/18 06:59:15;;;;;;;31.57;29.20;;;;;;;;;;5137508;27;20963;-77
2022/10/18 07:01:43;;;;;;;32.10;29.70;;;;;;;;;;5139130;27;20474;-84
2022/10/18 07:04:10;;;;;;;31.70;29.30;;;;;;;;;;5142265;27;20529;-84
2022/10/18 07:06:38;;;;;;;30.30;28.00;;;;;;;;;;5141510;27;20437;-82
2022/10/18 07:09:05;;;;;;;33.23;30.73;;;;;;;;;;5140758;27;20860;-83
2022/10/18 07:11:32;;;;;;;30.43;28.07;;;;;;;;;;5139666;27;20416;-74
2022/10/18 07:14:03;;;;;;;30.57;28.07;;;;;;;;;;5142141;27;20483;-85
2022/10/18 07:16:31;;;;;;;30.10;27.80;;;;;;;;;;5140462;27;20448;-87
2022/10/18 07:18:59;;;;;;;30.67;28.30;;;;;;;;;;5141684;27;20466;-85
2022/10/18 07:21:27;;;;;;;30.23;27.93;;;;;;;;;;5141557;27;20485;-85
2022/10/18 07:23:54;;;;;;;30.37;28.20;;;;;;;;;;5140518;27;20990;-85
2022/10/18 07:26:22;;;;;;;29.83;27.73;;;;;;;;;;5140160;27;20438;-80
2022/10/18 07:28:52;;;;;;;30.37;28.03;;;;;;;;;;5135204;27;20455;-78
2022/10/18 07:31:22;;;;;;;29.10;26.70;;;;;;;;;;5135143;27;20452;-78
2022/10/18 07:33:49;;;;;;;33.67;30.97;;;;;;;;;;5135141;27;20468;-75
2022/10/18 07:36:16;;;;;;;30.57;27.90;;;;;;;;;;5135261;27;20453;-75
2022/10/18 07:38:44;;;;;;;28.07;26.10;;;;;;;;;;5135211;27;20420;-75
2022/10/18 07:41:12;;;;;;;27.83;25.83;;;;;;;;;;5135050;27;20479;-76
2022/10/18 07:43:42;;;;;;;30.27;28.07;;;;;;;;;;5135224;27;20463;-84
2022/10/18 07:46:09;;;;;;;28.80;26.60;;;;;;;;;;5136550;27;20869;-76
2022/10/18 07:48:38;;;;;;;30.57;27.77;;;;;;;;;;5135294;27;20415;-77
2022/10/18 07:51:05;;;;;;;30.23;28.10;;;;;;;;;;5134775;27;20468;-77
2022/10/18 07:53:33;;;;;;;29.87;27.10;;;;;;;;;;5134603;27;20892;-76
2022/10/18 07:56:01;;;;;;;29.33;27.03;;;;;;;;;;5135408;27;20532;-76
2022/10/18 07:58:29;;;;;;;29.30;27.00;;;;;;;;;;5135443;27;20426;-75
2022/10/18 08:00:56;;;;;;;30.30;28.00;;;;;;;;;;5135682;27;20449;-77
2022/10/18 08:03:23;;;;;;;30.43;28.07;;;;;;;;;;5134068;27;20884;-77
2022/10/18 08:05:56;;;;;;;35.37;32.13;;;;;;;;;;5134221;27;20423;-75
2022/10/18 08:08:23;;;;;;;31.70;28.80;;;;;;;;;;5135033;27;20506;-75
2022/10/18 08:10:51;;;;;;;33.13;29.93;;;;;;;;;;5134308;27;20455;-75
2022/10/18 08:13:18;;;;;;;30.77;28.50;;;;;;;;;;5133884;27;20467;-77
2022/10/18 08:15:45;;;;;;;31.70;29.10;;;;;;;;;;5133883;27;20463;-77
2022/10/18 08:18:13;;;;;;;31.63;28.53;;;;;;;;;;5134657;27;20465;-77
2022/10/18 08:20:43;;;;;;;33.50;30.40;;;;;;;;;;5134388;27;20443;-77
2022/10/18 08:23:11;;;;;;;33.50;30.83;;;;;;;;;;5133904;27;20848;-76
2022/10/18 08:25:39;;;;;;;32.63;29.80;;;;;;;;;;5133779;27;20445;-76
2022/10/18 08:28:07;;;;;;;31.37;29.00;;;;;;;;;;5134411;27;20467;-75
2022/10/18 08:30:35;;;;;;;32.73;29.87;;;;;;;;;;5134241;27;20488;-74
2022/10/18 08:33:02;;;;;;;33.40;30.50;;;;;;;;;;5133410;27;20461;-76
2022/10/18 08:35:30;;;;;;;34.57;31.47;;;;;;;;;;5134447;27;20424;-74
2022/10/18 08:37:58;;;;;;;33.37;30.47;;;;;;;;;;5133609;27;20460;-74
2022/10/18 08:40:27;;;;;;;36.67;32.80;;;;;;;;;;5134131;27;20530;-75
2022/10/18 08:43:01;;;;;;;36.80;33.10;;;;;;;;;;5133711;27;20578;-75
2022/10/18 08:45:37;;;;;;;38.50;34.60;;;;;;;;;;5138781;27;20869;-82
2022/10/18 08:48:05;;;;;;;35.30;31.60;;;;;;;;;;5140384;27;20417;-82
2022/10/18 08:50:35;;;;;;;37.87;34.27;;;;;;;;;;5138169;27;20452;-75
2022/10/18 08:53:05;;;;;;;35.30;31.87;;;;;;;;;;5131537;27;20473;-74
2022/10/18 08:55:39;;;;;;;37.40;33.47;;;;;;;;;;5133886;27;20925;-75
2022/10/18 08:58:14;;;;;;;40.60;36.60;;;;;;;;;;5133870;27;20452;-75
2022/10/18 09:00:44;;;;;;;40.20;36.20;;;;;;;;;;5133908;27;20429;-75
2022/10/18 09:03:20;;;;;;;40.60;36.20;;;;;;;;;;5132549;27;21008;-74
2022/10/18 09:05:50;;;;;;;38.23;34.10;;;;;;;;;;5133525;27;20465;-74
2022/10/18 09:08:26;;;;;;;41.00;36.80;;;;;;;;;;5132889;27;20880;-75
2022/10/18 09:11:01;;;;;;;40.77;35.93;;;;;;;;;;5133726;27;20430;-75
2022/10/18 09:13:36;;;;;;;40.70;36.60;;;;;;;;;;5133552;27;20475;-75
2022/10/18 09:16:04;;;;;;;40.67;36.37;;;;;;;;;;5133442;27;20431;-75
2022/10/18 09:18:42;;;;;;;40.47;36.20;;;;;;;;;;5133812;27;20514;-74
2022/10/18 09:21:16;;;;;;;42.97;38.30;;;;;;;;;;5133236;28;20442;-75
2022/10/18 09:23:47;;;;;;;43.77;39.23;;;;;;;;;;5132994;27;20492;-75
2022/10/18 09:26:17;;;;;;;41.50;36.97;;;;;;;;;;5133507;28;20441;-75
2022/10/18 09:28:50;;;;;;;47.83;39.50;;;;;;;;;;5133393;28;20440;-75
2022/10/18 09:31:20;;;;;;;45.43;38.77;;;;;;;;;;5132917;28;20444;-76
2022/10/18 09:33:51;;;;;;;48.43;39.93;;;;;;;;;;5133592;28;20470;-74
2022/10/18 09:36:20;;;;;;;45.83;39.00;;;;;;;;;;5133872;28;20416;-74
2022/10/18 09:38:50;;;;;;;43.67;38.87;;;;;;;;;;5132738;27;20961;-75
2022/10/18 09:41:21;;;;;;;44.70;39.90;;;;;;;;;;5132879;27;20451;-75
2022/10/18 09:43:52;;;;;;;45.47;39.43;;;;;;;;;;5133308;28;20490;-75
2022/10/18 09:46:21;;;;;;;42.13;37.73;;;;;;;;;;5133733;27;20413;-75
2022/10/18 09:48:50;;;;;;;47.27;40.33;;;;;;;;;;5133442;28;20431;-75
2022/10/18 09:51:21;;;;;;;44.30;39.73;;;;;;;;;;5132240;27;20448;-76
2022/10/18 09:53:54;;;;;;;43.00;38.60;;;;;;;;;;5133182;27;20437;-76
2022/10/18 09:56:26;;;;;;;42.60;38.27;;;;;;;;;;5133202;28;20425;-75
2022/10/18 09:58:53;;;;;;;44.23;37.80;;;;;;;;;;5134467;27;20450;-75
2022/10/18 10:01:22;;;;;;;42.73;38.30;;;;;;;;;;5136820;27;20500;-75
2022/10/18 10:03:49;;;;;;;45.67;40.93;;;;;;;;;;5136630;27;20500;-74
2022/10/18 10:06:18;;;;;;;38.57;34.67;;;;;;;;;;5137264;27;20456;-74
2022/10/18 10:08:50;;;;;;;40.93;36.97;;;;;;;;;;5136932;27;20453;-75
2022/10/18 10:11:29;;;;;;;46.13;40.87;;;;;;;;;;5136611;27;20408;-75
2022/10/18 10:13:58;;;;;;;45.00;40.20;;;;;;;;;;5136639;27;20813;-75
2022/10/18 10:16:26;;;;;;;43.30;38.67;;;;;;;;;;5137086;27;20501;-74
2022/10/18 10:18:53;;;;;;;42.67;38.40;;;;;;;;;;5137100;27;20456;-75
2022/10/18 10:21:22;;;;;;;39.67;35.70;;;;;;;;;;5136160;27;20428;-75
2022/10/18 10:23:53;;;;;;;40.00;36.10;;;;;;;;;;5136310;27;20494;-75
2022/10/18 10:26:23;;;;;;;40.20;36.33;;;;;;;;;;5136775;27;20519;-75
2022/10/18 10:28:52;;;;;;;40.67;36.93;;;;;;;;;;5136786;27;20451;-75
2022/10/18 10:31:26;;;;;;;36.70;33.17;;;;;;;;;;5136212;27;20431;-75
2022/10/18 10:33:59;;;;;;;37.43;33.70;;;;;;;;;;5136274;27;20459;-74
2022/10/18 10:36:26;;;;;;;38.40;34.60;;;;;;;;;;5136517;27;20799;-76
2022/10/18 10:39:03;;;;;;;38.40;34.87;;;;;;;;;;5136503;27;20444;-75
2022/10/18 10:41:30;;;;;;;40.20;36.40;;;;;;;;;;5136075;27;20446;-75
2022/10/18 10:44:01;;;;;;;39.37;35.73;;;;;;;;;;5135650;27;20497;-75
2022/10/18 10:46:34;;;;;;;38.77;34.97;;;;;;;;;;5136889;27;20839;-74
2022/10/18 10:49:02;;;;;;;39.40;35.60;;;;;;;;;;5136378;27;20444;-75
2022/10/18 10:51:31;;;;;;;42.23;37.83;;;;;;;;;;5135767;27;20486;-74
2022/10/18 10:54:00;;;;;;;43.30;36.30;;;;;;;;;;5136277;27;20461;-74
2022/10/18 10:56:28;;;;;;;39.83;35.90;;;;;;;;;;5136313;27;20451;-75
2022/10/18 10:58:57;;;;;;;40.20;36.10;;;;;;;;;;5137970;27;20853;-73
2022/10/18 11:01:30;;;;;;;45.53;40.63;;;;;;;;;;5135247;27;20460;-73
2022/10/18 11:03:58;;;;;;;40.83;36.57;;;;;;;;;;5136001;27;20828;-73
2022/10/18 11:06:38;;;;;;;42.47;37.90;;;;;;;;;;5136085;27;20434;-73
2022/10/18 11:09:07;;;;;;;43.50;39.03;;;;;;;;;;5135624;27;20454;-75
2022/10/18 11:11:37;;;;;;;42.27;37.80;;;;;;;;;;5135469;27;20840;-73
2022/10/18 11:14:05;;;;;;;43.83;39.13;;;;;;;;;;5134696;27;20501;-74
2022/10/18 11:16:37;;;;;;;41.50;37.20;;;;;;;;;;5135740;27;20460;-73
2022/10/18 11:19:10;;;;;;;43.13;37.30;;;;;;;;;;5135741;27;20791;-74
2022/10/18 11:21:38;;;;;;;43.17;38.63;;;;;;;;;;5134390;27;20399;-73
2022/10/18 11:24:08;;;;;;;42.27;37.70;;;;;;;;;;5135533;27;20467;-73
2022/10/18 11:26:43;;;;;;;43.87;37.27;;;;;;;;;;5135739;27;20822;-74
2022/10/18 11:29:26;;;;;;;39.93;35.73;;;;;;;;;;5135062;27;20464;-74
2022/10/18 11:31:59;;;;;;;36.80;33.33;;;;;;;;;;5135151;27;20433;-73
2022/10/18 11:34:33;;;;;;;36.90;33.27;;;;;;;;;;5135544;27;20457;-74
2022/10/18 11:37:06;;;;;;;37.70;33.90;;;;;;;;;;5135290;27;20433;-74
2022/10/18 11:39:39;;;;;;;32.40;29.20;;;;;;;;;;5135291;27;20463;-74
2022/10/18 11:42:11;;;;;;;31.63;28.90;;;;;;;;;;5134527;27;20458;-73
2022/10/18 11:44:44;;;;;;;32.60;29.37;;;;;;;;;;5134720;27;20452;-74
2022/10/18 11:47:17;;;;;;;33.60;30.57;;;;;;;;;;5134962;27;20491;-73
2022/10/18 11:49:56;;;;;;;31.30;28.63;;;;;;;;;;5135262;27;20528;-74
2022/10/18 11:52:28;;;;;;;29.60;27.27;;;;;;;;;;5134426;27;20937;-73
2022/10/18 11:55:02;;;;;;;31.67;28.80;;;;;;;;;;5134740;27;20427;-73
2022/10/18 11:57:41;;;;;;;29.87;27.00;;;;;;;;;;5135231;27;20437;-73
2022/10/18 12:00:15;;;;;;;28.07;25.87;;;;;;;;;;5135009;27;20411;-74
2022/10/18 12:02:55;;;;;;;29.93;27.40;;;;;;;;;;5134016;27;20489;-74
2022/10/18 12:05:23;;;;;;;34.97;31.40;;;;;;;;;;5134529;27;20430;-74
2022/10/18 12:07:53;;;;;;;31.83;28.50;;;;;;;;;;5134700;27;20465;-73
2022/10/18 12:10:21;;;;;;;31.50;28.63;;;;;;;;;;5135734;27;20440;-86
2022/10/18 12:12:51;;;;;;;32.57;29.27;;;;;;;;;;5135167;27;21048;-75
2022/10/18 12:15:20;;;;;;;33.03;29.73;;;;;;;;;;5134683;27;20459;-78
2022/10/18 12:17:49;;;;;;;33.10;29.53;;;;;;;;;;5134829;27;20848;-75
2022/10/18 12:20:20;;;;;;;35.03;30.77;;;;;;;;;;5135170;27;20445;-75
2022/10/18 12:22:50;;;;;;;32.63;29.63;;;;;;;;;;5132681;27;21012;-76
2022/10/18 12:25:19;;;;;;;32.17;29.03;;;;;;;;;;5134281;27;20451;-75
2022/10/18 12:27:49;;;;;;;31.90;28.80;;;;;;;;;;5134361;27;20816;-75
2022/10/18 12:30:21;;;;;;;31.20;28.53;;;;;;;;;;5134617;27;20425;-76
2022/10/18 12:32:49;;;;;;;33.50;30.20;;;;;;;;;;5133477;27;20882;-75
2022/10/18 12:35:20;;;;;;;32.13;29.17;;;;;;;;;;5133678;27;20462;-75
2022/10/18 12:38:01;;;;;;;30.30;27.57;;;;;;;;;;5134176;27;20434;-76
2022/10/18 12:40:34;;;;;;;29.50;26.57;;;;;;;;;;5134499;27;20928;-75
2022/10/18 12:43:08;;;;;;;28.87;26.57;;;;;;;;;;5133475;27;20978;-75
2022/10/18 12:45:37;;;;;;;29.63;26.70;;;;;;;;;;5133914;27;20475;-76
2022/10/18 12:48:06;;;;;;;28.23;26.07;;;;;;;;;;5133756;27;20457;-76
2022/10/18 12:50:36;;;;;;;30.23;27.70;;;;;;;;;;5134274;27;20421;-76
2022/10/18 12:53:22;;;;;;;31.40;28.40;;;;;;;;;;5133287;27;20984;-75
2022/10/18 12:55:50;;;;;;;30.63;27.63;;;;;;;;;;5133926;27;20439;-75
2022/10/18 12:58:28;;;;;;;27.87;25.37;;;;;;;;;;5134095;27;20500;-75
2022/10/18 13:00:57;;;;;;;25.80;23.40;;;;;;;;;;5132659;27;20463;-76
2022/10/18 13:03:39;;;;;;;27.73;25.13;;;;;;;;;;5133940;27;20842;-76
2022/10/18 13:06:08;;;;;;;27.07;24.47;;;;;;;;;;5133932;27;20413;-76
2022/10/18 13:08:41;;;;;;;25.27;23.17;;;;;;;;;;5133895;27;20458;-76
2022/10/18 13:11:24;;;;;;;26.13;23.80;;;;;;;;;;5133083;27;20436;-75
2022/10/18 13:14:09;;;;;;;26.20;24.00;;;;;;;;;;5133003;27;20523;-75
2022/10/18 13:16:39;;;;;;;25.80;23.57;;;;;;;;;;5133486;27;20915;-75
2022/10/18 13:19:18;;;;;;;24.60;22.53;;;;;;;;;;5133818;27;20465;-75
2022/10/18 13:21:53;;;;;;;25.50;23.13;;;;;;;;;;5132966;27;20460;-75
2022/10/18 13:24:31;;;;;;;25.57;23.03;;;;;;;;;;5133298;27;20988;-75
2022/10/18 13:27:20;;;;;;;26.63;24.20;;;;;;;;;;5133454;27;20454;-76
2022/10/18 13:29:56;;;;;;;24.10;21.80;;;;;;;;;;5133862;27;20408;-76
2022/10/18 13:32:25;;;;;;;24.30;22.53;;;;;;;;;;5133643;27;20457;-75
2022/10/18 13:34:52;;;;;;;24.83;22.97;;;;;;;;;;5137087;27;20399;-75
2022/10/18 13:37:24;;;;;;;23.53;21.83;;;;;;;;;;5137534;27;20421;-75
2022/10/18 13:39:52;;;;;;;24.43;22.50;;;;;;;;;;5137675;27;20432;-75
2022/10/18 13:42:21;;;;;;;24.60;22.90;;;;;;;;;;5137067;27;20450;-75
2022/10/18 13:44:49;;;;;;;23.87;22.27;;;;;;;;;;5137957;27;20476;-75
2022/10/18 13:47:17;;;;;;;25.37;23.37;;;;;;;;;;5137628;27;20456;-76
2022/10/18 13:50:06;;;;;;;24.37;22.43;;;;;;;;;;5137719;27;21167;-75
2022/10/18 13:52:43;;;;;;;23.73;21.87;;;;;;;;;;5136557;27;20923;-76
2022/10/18 13:55:22;;;;;;;25.63;23.30;;;;;;;;;;5137377;27;20400;-75
2022/10/18 13:57:53;;;;;;;23.80;22.10;;;;;;;;;;5137686;27;20779;-76
2022/10/18 14:00:28;;;;;;;24.37;22.67;;;;;;;;;;5137589;27;20887;-76
2022/10/18 14:03:05;;;;;;;23.97;22.20;;;;;;;;;;5135993;27;20493;-76
2022/10/18 14:05:47;;;;;;;23.03;21.33;;;;;;;;;;5137291;27;20456;-75
2022/10/18 14:08:19;;;;;;;23.70;22.07;;;;;;;;;;5134764;27;20829;-76
2022/10/18 14:10:52;;;;;;;23.47;21.67;;;;;;;;;;5137227;27;20426;-76
2022/10/18 14:13:23;;;;;;;23.93;22.53;;;;;;;;;;5136468;27;20520;-75
2022/10/18 14:15:52;;;;;;;23.87;21.80;;;;;;;;;;5137050;27;20436;-76
2022/10/18 14:18:23;;;;;;;23.20;21.70;;;;;;;;;;5137377;27;20454;-76
2022/10/18 14:20:52;;;;;;;24.10;22.30;;;;;;;;;;5137053;27;20426;-76
2022/10/18 14:23:22;;;;;;;22.77;21.23;;;;;;;;;;5135792;27;20477;-76
2022/10/18 14:25:50;;;;;;;23.60;21.90;;;;;;;;;;5136959;27;20559;-75
2022/10/18 14:28:18;;;;;;;23.50;21.90;;;;;;;;;;5137055;27;20454;-75
2022/10/18 14:30:52;;;;;;;24.00;22.03;;;;;;;;;;5136370;27;20469;-76